Time,TemperatureF,DewpointF,PressureIn,WindDirection,WindDirectionDegrees,WindSpeedMPH,WindSpeedGustMPH,Humidity,HourlyPrecipIn,Conditions,Clouds,dailyrainin,SoftwareType,DateUTC
2013-02-21 00:02:00,24.8,22.8,30.09,East,79,14.0,14.0,92,0.00,,,0.00,Wunderground v.1.15,2013-02-21 06:02:00,
2013-02-21 00:12:00,24.8,22.8,30.09,ENE,75,14.0,14.0,92,0.00,,,0.00,Wunderground v.1.15,2013-02-21 06:12:00,
2013-02-21 00:22:00,24.8,22.8,30.09,East,86,13.0,14.0,92,0.00,,,0.00,Wunderground v.1.15,2013-02-21 06:22:00,
2013-02-21 00:32:00,24.9,22.9,30.09,East,83,12.0,17.0,92,0.00,,,0.00,Wunderground v.1.15,2013-02-21 06:32:00,
2013-02-21 00:42:00,24.9,23.2,30.09,ENE,74,14.0,14.0,93,0.00,,,0.00,Wunderground v.1.15,2013-02-21 06:42:00,
2013-02-21 00:52:00,24.9,23.2,30.08,East,79,12.0,15.0,93,0.00,,,0.00,Wunderground v.1.15,2013-02-21 06:52:00,
2013-02-21 01:02:00,24.8,23.1,30.08,East,98,13.0,13.0,93,0.00,,,0.00,Wunderground v.1.15,2013-02-21 07:02:00,
2013-02-21 01:12:00,24.8,23.1,30.07,ENE,77,12.0,15.0,93,0.00,,,0.00,Wunderground v.1.15,2013-02-21 07:12:00,
2013-02-21 01:22:00,24.7,23.0,30.08,East,96,12.0,12.0,93,0.00,,,0.00,Wunderground v.1.15,2013-02-21 07:22:00,
2013-02-21 01:32:00,24.7,23.0,30.07,East,94,12.0,12.0,93,0.00,,,0.00,Wunderground v.1.15,2013-02-21 07:32:00,
2013-02-21 01:42:00,24.8,23.1,30.07,East,85,13.0,13.0,93,0.00,,,0.00,Wunderground v.1.15,2013-02-21 07:42:00,
2013-02-21 01:52:00,24.8,23.1,30.06,ENE,72,14.0,14.0,93,0.00,,,0.00,Wunderground v.1.15,2013-02-21 07:52:00,
2013-02-21 02:02:00,24.8,23.1,30.04,East,88,15.0,15.0,93,0.00,,,0.00,Wunderground v.1.15,2013-02-21 08:02:00,
2013-02-21 02:12:00,24.8,23.1,30.01,East,80,14.0,14.0,93,0.00,,,0.00,Wunderground v.1.15,2013-02-21 08:12:00,
2013-02-21 02:22:00,24.8,23.1,30.02,ENE,73,14.0,14.0,93,0.00,,,0.00,Wunderground v.1.15,2013-02-21 08:22:00,
2013-02-21 02:32:00,24.9,23.2,30.03,East,90,13.0,13.0,93,0.00,,,0.00,Wunderground v.1.15,2013-02-21 08:32:00,
2013-02-21 02:42:00,24.9,23.2,30.03,ENE,75,12.0,12.0,93,0.00,,,0.00,Wunderground v.1.15,2013-02-21 08:42:00,
2013-02-21 02:52:00,24.8,23.1,30.01,ENE,77,13.0,13.0,93,0.00,,,0.00,Wunderground v.1.15,2013-02-21 08:52:00,
2013-02-21 03:02:00,24.8,23.1,30.00,ENE,72,13.0,13.0,93,0.00,,,0.00,Wunderground v.1.15,2013-02-21 09:02:00,
2013-02-21 03:12:00,24.6,22.9,30.00,ENE,75,13.0,18.0,93,0.00,,,0.00,Wunderground v.1.15,2013-02-21 09:12:00,
2013-02-21 03:22:00,24.6,23.1,29.99,ENE,68,13.0,13.0,94,0.00,,,0.00,Wunderground v.1.15,2013-02-21 09:22:00,
2013-02-21 03:31:00,24.6,23.1,29.98,East,95,14.0,14.0,94,0.00,,,0.00,Wunderground v.1.15,2013-02-21 09:31:00,
2013-02-21 03:41:00,24.5,23.0,29.99,ENE,70,13.0,16.0,94,0.00,,,0.00,Wunderground v.1.15,2013-02-21 09:41:00,
2013-02-21 03:52:00,24.4,22.9,29.97,ENE,60,14.0,14.0,94,0.00,,,0.00,Wunderground v.1.15,2013-02-21 09:52:00,
2013-02-21 04:02:00,24.3,22.8,29.97,ENE,73,14.0,15.0,94,0.00,,,0.00,Wunderground v.1.15,2013-02-21 10:02:00,
2013-02-21 04:12:00,24.3,22.8,29.94,ENE,71,15.0,15.0,94,0.00,,,0.00,Wunderground v.1.15,2013-02-21 10:12:00,
2013-02-21 04:22:00,24.2,22.7,29.91,East,84,17.0,20.0,94,0.00,,,0.00,Wunderground v.1.15,2013-02-21 10:22:00,
2013-02-21 04:32:00,24.2,22.7,29.93,East,79,17.0,17.0,94,0.00,,,0.00,Wunderground v.1.15,2013-02-21 10:32:00,
2013-02-21 04:42:00,24.3,22.8,29.96,ENE,74,14.0,14.0,94,0.00,,,0.00,Wunderground v.1.15,2013-02-21 10:42:00,
2013-02-21 04:52:00,24.4,22.9,29.97,ENE,75,12.0,12.0,94,0.00,,,0.00,Wunderground v.1.15,2013-02-21 10:52:00,
2013-02-21 05:02:00,24.4,22.9,29.98,ENE,73,10.0,10.0,94,0.00,,,0.00,Wunderground v.1.15,2013-02-21 11:02:00,
2013-02-21 05:12:00,24.5,23.0,29.95,ENE,75,11.0,13.0,94,0.00,,,0.00,Wunderground v.1.15,2013-02-21 11:12:00,
2013-02-21 05:22:00,24.7,23.2,29.95,East,80,12.0,17.0,94,0.00,,,0.00,Wunderground v.1.15,2013-02-21 11:22:00,
2013-02-21 05:32:00,24.8,23.3,29.93,ENE,72,12.0,15.0,94,0.00,,,0.00,Wunderground v.1.15,2013-02-21 11:32:00,
2013-02-21 05:42:00,24.7,23.2,29.95,East,79,14.0,14.0,94,0.00,,,0.00,Wunderground v.1.15,2013-02-21 11:42:00,
2013-02-21 05:52:00,24.7,23.2,29.94,ENE,75,13.0,13.0,94,0.00,,,0.00,Wunderground v.1.15,2013-02-21 11:52:00,
2013-02-21 06:02:00,24.6,23.1,29.93,ENE,71,13.0,13.0,94,0.00,,,0.00,Wunderground v.1.15,2013-02-21 12:02:00,
2013-02-21 06:12:00,24.6,23.1,29.93,ENE,64,13.0,13.0,94,0.00,,,0.00,Wunderground v.1.15,2013-02-21 12:12:00,
2013-02-21 06:22:00,24.5,23.0,29.93,East,86,13.0,13.0,94,0.00,,,0.00,Wunderground v.1.15,2013-02-21 12:22:00,
2013-02-21 06:31:00,24.5,23.0,29.91,East,88,14.0,15.0,94,0.00,,,0.00,Wunderground v.1.15,2013-02-21 12:31:00,
2013-02-21 06:41:00,24.5,23.0,29.92,ENE,58,13.0,13.0,94,0.00,,,0.00,Wunderground v.1.15,2013-02-21 12:41:00,
2013-02-21 06:51:00,24.5,23.0,29.92,ENE,72,12.0,14.0,94,0.00,,,0.00,Wunderground v.1.15,2013-02-21 12:51:00,
2013-02-21 07:02:00,24.6,23.1,29.90,ENE,77,11.0,11.0,94,0.00,,,0.00,Wunderground v.1.15,2013-02-21 13:02:00,
2013-02-21 07:12:00,24.6,23.1,29.91,ENE,68,10.0,14.0,94,0.00,,,0.00,Wunderground v.1.15,2013-02-21 13:12:00,
2013-02-21 07:22:00,24.6,23.1,29.91,NE,49,11.0,12.0,94,0.00,,,0.00,Wunderground v.1.15,2013-02-21 13:22:00,
2013-02-21 07:32:00,24.6,23.1,29.91,East,80,9.0,10.0,94,0.00,,,0.00,Wunderground v.1.15,2013-02-21 13:32:00,
2013-02-21 07:42:00,24.6,23.1,29.89,ENE,71,9.0,9.0,94,0.00,,,0.00,Wunderground v.1.15,2013-02-21 13:42:00,
2013-02-21 07:52:00,24.6,23.1,29.89,ENE,78,9.0,11.0,94,0.00,,,0.00,Wunderground v.1.15,2013-02-21 13:52:00,
2013-02-21 08:02:00,24.7,23.2,29.89,ENE,75,10.0,10.0,94,0.00,,,0.00,Wunderground v.1.15,2013-02-21 14:02:00,
2013-02-21 08:12:00,24.7,23.2,29.87,ENE,75,10.0,10.0,94,0.00,,,0.00,Wunderground v.1.15,2013-02-21 14:12:00,
2013-02-21 08:22:00,24.8,23.3,29.87,ENE,63,9.0,9.0,94,0.00,,,0.00,Wunderground v.1.15,2013-02-21 14:22:00,
2013-02-21 08:32:00,25.0,23.5,29.87,NE,53,8.0,9.0,94,0.00,,,0.00,Wunderground v.1.15,2013-02-21 14:32:00,
2013-02-21 08:42:00,25.1,23.6,29.88,NE,49,7.0,7.0,94,0.00,,,0.00,Wunderground v.1.15,2013-02-21 14:42:00,
2013-02-21 08:52:00,25.2,23.7,29.87,ENE,63,7.0,11.0,94,0.00,,,0.00,Wunderground v.1.15,2013-02-21 14:52:00,
2013-02-21 09:02:00,25.3,23.8,29.86,NE,45,8.0,8.0,94,0.00,,,0.00,Wunderground v.1.15,2013-02-21 15:02:00,
2013-02-21 09:12:00,25.4,23.9,29.86,NE,49,9.0,9.0,94,0.00,,,0.00,Wunderground v.1.15,2013-02-21 15:12:00,
2013-02-21 09:22:00,25.5,24.0,29.86,NE,38,8.0,10.0,94,0.00,,,0.00,Wunderground v.1.15,2013-02-21 15:22:00,
2013-02-21 09:32:00,25.5,24.0,29.85,ENE,60,9.0,10.0,94,0.00,,,0.00,Wunderground v.1.15,2013-02-21 15:32:00,
2013-02-21 09:42:00,25.6,24.1,29.86,NNE,23,8.0,8.0,94,0.00,,,0.00,Wunderground v.1.15,2013-02-21 15:42:00,
2013-02-21 09:52:00,25.7,24.2,29.87,ENE,62,8.0,8.0,94,0.00,,,0.00,Wunderground v.1.15,2013-02-21 15:52:00,
2013-02-21 10:02:00,25.8,24.3,29.86,ENE,58,7.0,7.0,94,0.00,,,0.00,Wunderground v.1.15,2013-02-21 16:02:00,
2013-02-21 10:12:00,25.9,24.4,29.86,NE,43,6.0,7.0,94,0.00,,,0.00,Wunderground v.1.15,2013-02-21 16:12:00,
2013-02-21 10:21:00,25.9,24.4,29.86,ENE,58,6.0,6.0,94,0.00,,,0.00,Wunderground v.1.15,2013-02-21 16:21:00,
2013-02-21 10:31:00,25.9,24.4,29.86,NE,46,7.0,8.0,94,0.00,,,0.00,Wunderground v.1.15,2013-02-21 16:31:00,
2013-02-21 10:42:00,25.8,24.3,29.86,NE,41,9.0,10.0,94,0.00,,,0.00,Wunderground v.1.15,2013-02-21 16:42:00,
2013-02-21 10:52:00,25.9,24.4,29.86,North,354,10.0,10.0,94,0.00,,,0.00,Wunderground v.1.15,2013-02-21 16:52:00,
2013-02-21 11:02:00,26.1,24.6,29.85,NE,38,9.0,10.0,94,0.00,,,0.00,Wunderground v.1.15,2013-02-21 17:02:00,
2013-02-21 11:12:00,26.1,24.6,29.85,North,10,10.0,13.0,94,0.00,,,0.00,Wunderground v.1.15,2013-02-21 17:12:00,
2013-02-21 11:22:00,25.8,24.3,29.83,ENE,63,13.0,13.0,94,0.00,,,0.00,Wunderground v.1.15,2013-02-21 17:22:00,
2013-02-21 11:32:00,25.8,24.3,29.83,NE,53,12.0,13.0,94,0.00,,,0.00,Wunderground v.1.15,2013-02-21 17:32:00,
2013-02-21 11:42:00,25.8,24.3,29.82,NE,53,12.0,16.0,94,0.00,,,0.00,Wunderground v.1.15,2013-02-21 17:42:00,
2013-02-21 11:52:00,25.9,24.4,29.83,NE,34,12.0,12.0,94,0.00,,,0.00,Wunderground v.1.15,2013-02-21 17:52:00,
2013-02-21 12:02:00,26.1,24.6,29.84,NE,38,11.0,11.0,94,0.00,,,0.00,Wunderground v.1.15,2013-02-21 18:02:00,
2013-02-21 12:12:00,26.2,24.7,29.84,NNE,26,11.0,11.0,94,0.00,,,0.00,Wunderground v.1.15,2013-02-21 18:12:00,
2013-02-21 12:22:00,25.9,24.4,29.83,NE,40,11.0,11.0,94,0.00,,,0.00,Wunderground v.1.15,2013-02-21 18:22:00,
2013-02-21 12:32:00,25.6,23.9,29.84,North,355,11.0,11.0,93,0.00,,,0.00,Wunderground v.1.15,2013-02-21 18:32:00,
2013-02-21 12:42:00,25.4,23.9,29.84,NNE,30,11.0,11.0,94,0.00,,,0.00,Wunderground v.1.15,2013-02-21 18:42:00,
2013-02-21 12:52:00,25.5,24.0,29.83,NNE,18,11.0,14.0,94,0.00,,,0.00,Wunderground v.1.15,2013-02-21 18:52:00,
2013-02-21 13:02:00,25.2,23.5,29.83,North,11,11.0,11.0,93,0.00,,,0.00,Wunderground v.1.15,2013-02-21 19:02:00,
2013-02-21 13:12:00,24.8,23.1,29.84,NNE,21,12.0,12.0,93,0.00,,,0.00,Wunderground v.1.15,2013-02-21 19:12:00,
2013-02-21 13:22:00,24.6,22.9,29.84,North,354,11.0,11.0,93,0.00,,,0.00,Wunderground v.1.15,2013-02-21 19:22:00,
2013-02-21 13:32:00,24.5,22.8,29.83,North,352,11.0,14.0,93,0.00,,,0.00,Wunderground v.1.15,2013-02-21 19:32:00,
2013-02-21 13:42:00,24.6,22.9,29.83,NNW,330,9.0,9.0,93,0.00,,,0.00,Wunderground v.1.15,2013-02-21 19:42:00,
2013-02-21 13:52:00,24.4,22.7,29.83,NNW,337,10.0,10.0,93,0.00,,,0.00,Wunderground v.1.15,2013-02-21 19:52:00,
2013-02-21 14:01:00,24.3,22.6,29.82,North,354,10.0,10.0,93,0.00,,,0.00,Wunderground v.1.15,2013-02-21 20:01:00,
2013-02-21 14:11:00,24.1,22.4,29.82,NNW,340,10.0,12.0,93,0.00,,,0.00,Wunderground v.1.15,2013-02-21 20:11:00,
2013-02-21 14:21:00,24.0,22.3,29.82,NNE,16,11.0,11.0,93,0.00,,,0.00,Wunderground v.1.15,2013-02-21 20:21:00,
2013-02-21 14:32:00,23.8,22.1,29.82,NNE,16,12.0,12.0,93,0.00,,,0.00,Wunderground v.1.15,2013-02-21 20:32:00,
2013-02-21 14:42:00,23.6,21.6,29.82,NE,49,12.0,15.0,92,0.00,,,0.00,Wunderground v.1.15,2013-02-21 20:42:00,
2013-02-21 14:52:00,23.6,21.9,29.81,North,352,13.0,13.0,93,0.00,,,0.00,Wunderground v.1.15,2013-02-21 20:52:00,
2013-02-21 15:02:00,23.7,22.0,29.81,NE,38,12.0,14.0,93,0.00,,,0.00,Wunderground v.1.15,2013-02-21 21:02:00,
2013-02-21 15:12:00,24.0,22.3,29.81,NNE,27,12.0,12.0,93,0.00,,,0.00,Wunderground v.1.15,2013-02-21 21:12:00,
2013-02-21 15:22:00,23.7,21.7,29.80,NNE,23,13.0,13.0,92,0.00,,,0.00,Wunderground v.1.15,2013-02-21 21:22:00,
2013-02-21 15:32:00,23.8,21.8,29.82,NNW,330,9.0,9.0,92,0.00,,,0.00,Wunderground v.1.15,2013-02-21 21:32:00,
2013-02-21 15:42:00,23.8,21.8,29.83,NNW,345,8.0,9.0,92,0.00,,,0.00,Wunderground v.1.15,2013-02-21 21:42:00,
2013-02-21 15:52:00,23.6,21.6,29.83,NNE,30,8.0,8.0,92,0.00,,,0.00,Wunderground v.1.15,2013-02-21 21:52:00,
2013-02-21 16:02:00,23.6,21.6,29.83,NE,43,7.0,11.0,92,0.00,,,0.00,Wunderground v.1.15,2013-02-21 22:02:00,
2013-02-21 16:12:00,23.7,21.7,29.83,NNW,333,7.0,7.0,92,0.00,,,0.00,Wunderground v.1.15,2013-02-21 22:12:00,
2013-02-21 16:22:00,23.5,21.5,29.83,NW,311,7.0,7.0,92,0.00,,,0.00,Wunderground v.1.15,2013-02-21 22:22:00,
2013-02-21 16:32:00,23.3,21.3,29.84,NW,309,7.0,7.0,92,0.00,,,0.00,Wunderground v.1.15,2013-02-21 22:32:00,
2013-02-21 16:42:00,23.1,21.1,29.85,WNW,286,6.0,7.0,92,0.00,,,0.00,Wunderground v.1.15,2013-02-21 22:42:00,
2013-02-21 16:52:00,22.8,20.8,29.85,NW,321,7.0,8.0,92,0.00,,,0.00,Wunderground v.1.15,2013-02-21 22:52:00,
2013-02-21 17:02:00,22.7,20.7,29.85,NW,320,8.0,8.0,92,0.00,,,0.00,Wunderground v.1.15,2013-02-21 23:02:00,
2013-02-21 17:11:00,22.5,20.5,29.86,West,278,9.0,9.0,92,0.00,,,0.00,Wunderground v.1.15,2013-02-21 23:11:00,
2013-02-21 17:22:00,22.5,20.5,29.86,NW,309,9.0,9.0,92,0.00,,,0.00,Wunderground v.1.15,2013-02-21 23:22:00,
2013-02-21 17:32:00,22.3,20.1,29.88,NW,316,12.0,12.0,91,0.00,,,0.00,Wunderground v.1.15,2013-02-21 23:32:00,
2013-02-21 17:42:00,22.0,19.8,29.88,WNW,300,15.0,15.0,91,0.00,,,0.00,Wunderground v.1.15,2013-02-21 23:42:00,
2013-02-21 17:51:00,21.7,19.7,29.88,WNW,300,14.0,14.0,92,0.00,,,0.00,Wunderground v.1.15,2013-02-21 23:51:00,
2013-02-21 18:01:00,21.6,19.6,29.88,NW,307,14.0,18.0,92,0.00,,,0.00,Wunderground v.1.15,2013-02-22 00:01:00,
2013-02-21 18:12:00,21.6,19.6,29.89,WNW,298,12.0,12.0,92,0.00,,,0.00,Wunderground v.1.15,2013-02-22 00:12:00,
2013-02-21 18:22:00,21.7,19.7,29.90,NW,309,12.0,13.0,92,0.00,,,0.00,Wunderground v.1.15,2013-02-22 00:22:00,
2013-02-21 18:32:00,21.4,19.4,29.90,WNW,295,12.0,12.0,92,0.00,,,0.00,Wunderground v.1.15,2013-02-22 00:32:00,
2013-02-21 18:42:00,21.1,19.1,29.90,NW,304,13.0,16.0,92,0.00,,,0.00,Wunderground v.1.15,2013-02-22 00:42:00,
2013-02-21 18:52:00,20.7,18.5,29.90,WNW,295,14.0,14.0,91,0.00,,,0.00,Wunderground v.1.15,2013-02-22 00:52:00,
2013-02-21 19:02:00,20.4,18.2,29.91,WNW,302,13.0,13.0,91,0.00,,,0.00,Wunderground v.1.15,2013-02-22 01:02:00,
2013-02-21 19:12:00,20.1,17.9,29.92,WNW,302,13.0,16.0,91,0.00,,,0.00,Wunderground v.1.15,2013-02-22 01:12:00,
2013-02-21 19:22:00,19.8,17.6,29.92,WNW,301,13.0,17.0,91,0.00,,,0.00,Wunderground v.1.15,2013-02-22 01:22:00,
2013-02-21 19:32:00,19.4,16.9,29.93,WNW,296,13.0,13.0,90,0.00,,,0.00,Wunderground v.1.15,2013-02-22 01:32:00,
2013-02-21 19:42:00,19.1,16.7,29.93,WNW,298,13.0,15.0,90,0.00,,,0.00,Wunderground v.1.15,2013-02-22 01:42:00,
2013-02-21 19:52:00,18.8,16.4,29.93,WNW,294,13.0,14.0,90,0.00,,,0.00,Wunderground v.1.15,2013-02-22 01:52:00,
2013-02-21 20:02:00,18.7,16.3,29.93,WNW,288,12.0,13.0,90,0.00,,,0.00,Wunderground v.1.15,2013-02-22 02:02:00,
2013-02-21 20:12:00,18.4,15.7,29.93,NW,308,12.0,12.0,89,0.00,,,0.00,Wunderground v.1.15,2013-02-22 02:12:00,
2013-02-21 20:22:00,18.2,15.8,29.94,West,281,12.0,12.0,90,0.00,,,0.00,Wunderground v.1.15,2013-02-22 02:22:00,
2013-02-21 20:32:00,18.3,15.9,29.95,WNW,299,13.0,14.0,90,0.00,,,0.00,Wunderground v.1.15,2013-02-22 02:32:00,
2013-02-21 20:42:00,18.2,15.5,29.95,WNW,297,13.0,13.0,89,0.00,,,0.00,Wunderground v.1.15,2013-02-22 02:42:00,
2013-02-21 20:52:00,18.1,15.4,29.95,WNW,292,13.0,16.0,89,0.00,,,0.00,Wunderground v.1.15,2013-02-22 02:52:00,
2013-02-21 21:02:00,17.9,15.2,29.95,NW,305,14.0,14.0,89,0.00,,,0.00,Wunderground v.1.15,2013-02-22 03:02:00,
2013-02-21 21:12:00,17.7,15.0,29.95,WNW,298,15.0,20.0,89,0.00,,,0.00,Wunderground v.1.15,2013-02-22 03:12:00,
2013-02-21 21:22:00,17.8,15.1,29.95,WNW,295,16.0,16.0,89,0.00,,,0.00,Wunderground v.1.15,2013-02-22 03:22:00,
2013-02-21 21:31:00,17.8,15.1,29.96,WNW,298,14.0,14.0,89,0.00,,,0.00,Wunderground v.1.15,2013-02-22 03:31:00,
2013-02-21 21:41:00,17.8,15.1,29.97,WNW,287,14.0,14.0,89,0.00,,,0.00,Wunderground v.1.15,2013-02-22 03:41:00,
2013-02-21 21:51:00,17.7,15.0,29.97,WNW,298,14.0,14.0,89,0.00,,,0.00,Wunderground v.1.15,2013-02-22 03:51:00,
2013-02-21 22:02:00,17.7,15.0,29.98,WNW,294,12.0,12.0,89,0.00,,,0.00,Wunderground v.1.15,2013-02-22 04:02:00,
2013-02-21 22:12:00,17.0,14.3,29.98,WNW,291,9.0,13.0,89,0.00,,,0.00,Wunderground v.1.15,2013-02-22 04:12:00,
2013-02-21 22:22:00,16.8,14.1,29.99,WNW,288,12.0,12.0,89,0.00,,,0.00,Wunderground v.1.15,2013-02-22 04:22:00,
2013-02-21 22:32:00,16.7,14.0,30.00,WNW,287,12.0,13.0,89,0.00,,,0.00,Wunderground v.1.15,2013-02-22 04:32:00,
2013-02-21 22:42:00,16.7,14.0,30.01,WNW,294,10.0,10.0,89,0.00,,,0.00,Wunderground v.1.15,2013-02-22 04:42:00,
2013-02-21 22:52:00,16.8,14.4,30.01,WNW,302,9.0,9.0,90,0.00,,,0.00,Wunderground v.1.15,2013-02-22 04:52:00,
2013-02-21 23:02:00,17.1,14.7,30.01,WNW,300,10.0,11.0,90,0.00,,,0.00,Wunderground v.1.15,2013-02-22 05:02:00,
2013-02-21 23:12:00,17.4,15.0,30.02,WNW,293,11.0,11.0,90,0.00,,,0.00,Wunderground v.1.15,2013-02-22 05:12:00,
2013-02-21 23:22:00,17.5,15.1,30.01,NW,308,12.0,14.0,90,0.00,,,0.00,Wunderground v.1.15,2013-02-22 05:22:00,
2013-02-21 23:32:00,17.5,14.8,30.01,NW,304,14.0,14.0,89,0.00,,,0.00,Wunderground v.1.15,2013-02-22 05:32:00,
2013-02-21 23:42:00,17.3,14.6,30.03,WNW,298,14.0,18.0,89,0.00,,,0.00,Wunderground v.1.15,2013-02-22 05:42:00,
2013-02-21 23:52:00,17.3,14.6,30.04,WNW,303,14.0,14.0,89,0.00,,,0.00,Wunderground v.1.15,2013-02-22 05:52:00,